createdAt,value
2019-05-23T00:02:07.868Z,13.70
2019-05-23T00:04:39.428Z,13.60
2019-05-23T00:07:11.029Z,13.50
2019-05-23T00:09:36.888Z,13.50
2019-05-23T00:12:31.437Z,13.60
2019-05-23T00:15:02.052Z,13.50
2019-05-23T00:17:28.821Z,13.40
2019-05-23T00:19:54.579Z,13.20
2019-05-23T00:22:20.667Z,13.20
2019-05-23T00:24:48.114Z,13.10
2019-05-23T00:27:14.618Z,13.10
2019-05-23T00:29:41.309Z,13.30
2019-05-23T00:32:23.356Z,13.30
2019-05-23T00:34:54.117Z,13.20
2019-05-23T00:37:23.056Z,13.00
2019-05-23T00:39:49.034Z,13.00
2019-05-23T00:42:16.646Z,13.10
2019-05-23T00:44:42.914Z,13.00
2019-05-23T00:47:11.184Z,13.00
2019-05-23T00:49:37.391Z,12.90
2019-05-23T00:52:04.003Z,12.90
2019-05-23T00:54:30.686Z,12.90
2019-05-23T00:56:57.315Z,12.80
2019-05-23T00:59:27.634Z,12.70
2019-05-23T01:01:52.833Z,12.70
2019-05-23T01:04:19.166Z,12.70
2019-05-23T01:06:44.872Z,12.70
2019-05-23T01:09:10.649Z,12.60
2019-05-23T01:11:38.038Z,12.60
2019-05-23T01:14:04.066Z,12.70
2019-05-23T01:16:38.919Z,12.60
2019-05-23T01:19:05.333Z,12.60
2019-05-23T01:22:09.831Z,12.70
2019-05-23T01:24:41.600Z,12.60
2019-05-23T01:27:09.138Z,12.50
2019-05-23T01:29:39.971Z,12.50
2019-05-23T01:32:25.200Z,12.50
2019-05-23T01:34:51.374Z,12.50
2019-05-23T01:37:18.935Z,12.50
2019-05-23T01:39:45.397Z,12.40
2019-05-23T01:42:11.117Z,12.40
2019-05-23T01:44:37.442Z,12.40
2019-05-23T01:47:05.170Z,12.40
2019-05-23T01:49:32.138Z,12.40
2019-05-23T01:51:58.285Z,12.40
2019-05-23T01:54:24.883Z,12.20
2019-05-23T01:56:50.440Z,12.10
2019-05-23T01:59:17.628Z,12.10
2019-05-23T02:01:46.572Z,12.00
2019-05-23T02:04:12.345Z,12.00
2019-05-23T02:06:38.132Z,12.00
2019-05-23T02:09:07.196Z,12.10
2019-05-23T02:11:33.073Z,12.00
2019-05-23T02:13:58.851Z,12.00
2019-05-23T02:16:25.929Z,12.00
2019-05-23T02:18:53.194Z,12.00
2019-05-23T02:21:20.754Z,12.00
2019-05-23T02:23:46.580Z,12.00
2019-05-23T02:26:13.233Z,11.90
2019-05-23T02:28:39.803Z,11.90
2019-05-23T02:31:06.554Z,11.90
2019-05-23T02:33:32.494Z,11.90
2019-05-23T02:36:01.046Z,12.00
2019-05-23T02:38:50.326Z,11.90
2019-05-23T02:41:41.048Z,11.80
2019-05-23T02:44:16.573Z,11.80
2019-05-23T02:47:10.621Z,11.80
2019-05-23T02:49:38.716Z,11.70
2019-05-23T02:52:44.450Z,11.60
2019-05-23T02:55:20.005Z,11.50
2019-05-23T02:57:48.350Z,11.40
2019-05-23T03:01:03.345Z,11.50
2019-05-23T03:03:32.970Z,11.60
2019-05-23T03:06:01.253Z,11.60
2019-05-23T03:08:29.325Z,11.60
2019-05-23T03:11:07.263Z,11.60
2019-05-23T03:13:34.716Z,11.60
2019-05-23T03:16:05.753Z,11.50
2019-05-23T03:18:35.149Z,11.40
2019-05-23T03:21:01.825Z,11.40
2019-05-23T03:23:30.314Z,11.50
2019-05-23T03:27:03.132Z,11.40
2019-05-23T03:29:31.481Z,11.30
2019-05-23T03:32:03.535Z,11.20
2019-05-23T03:34:31.104Z,11.30
2019-05-23T03:36:57.002Z,11.20
2019-05-23T03:39:23.418Z,11.30
2019-05-23T03:41:49.014Z,11.30
2019-05-23T03:44:15.575Z,11.20
2019-05-23T03:46:46.775Z,11.30
2019-05-23T03:49:14.951Z,11.30
2019-05-23T03:51:42.642Z,11.10
2019-05-23T03:54:11.013Z,11.10
2019-05-23T03:56:38.063Z,11.20
2019-05-23T03:59:06.709Z,11.30
2019-05-23T04:01:47.687Z,11.10
2019-05-23T04:04:06.107Z,11.10
2019-05-23T04:06:33.170Z,11.10
2019-05-23T04:09:01.914Z,11.20
2019-05-23T04:11:31.661Z,11.30
2019-05-23T04:13:59.109Z,11.20
2019-05-23T04:16:24.926Z,11.20
2019-05-23T04:18:51.464Z,11.20
2019-05-23T04:21:22.903Z,11.30
2019-05-23T04:23:49.119Z,11.20
2019-05-23T04:26:15.180Z,11.10
2019-05-23T04:28:40.755Z,11.30
2019-05-23T04:31:12.733Z,11.40
2019-05-23T04:33:36.233Z,11.40
2019-05-23T04:36:02.361Z,11.30
2019-05-23T04:38:28.345Z,11.40
2019-05-23T04:40:54.435Z,11.40
2019-05-23T04:43:20.169Z,11.40
2019-05-23T04:45:46.743Z,11.50
2019-05-23T04:48:13.111Z,11.50
2019-05-23T04:50:39.444Z,11.40
2019-05-23T04:53:06.862Z,11.40
2019-05-23T04:55:32.707Z,11.50
2019-05-23T04:58:04.000Z,11.60
2019-05-23T05:00:27.960Z,11.60
2019-05-23T05:02:53.981Z,11.70
2019-05-23T05:05:19.799Z,11.80
2019-05-23T05:07:45.892Z,11.80
2019-05-23T05:10:15.476Z,11.80
2019-05-23T05:12:41.694Z,11.90
2019-05-23T05:15:07.437Z,12.00
2019-05-23T05:17:33.538Z,12.10
2019-05-23T05:20:00.007Z,12.10
2019-05-23T05:22:25.989Z,12.10
2019-05-23T05:24:51.780Z,12.20
2019-05-23T05:27:19.766Z,12.30
2019-05-23T05:29:45.456Z,12.30
2019-05-23T05:32:11.718Z,12.30
2019-05-23T05:34:37.381Z,12.40
2019-05-23T05:37:03.618Z,12.50
2019-05-23T05:39:30.077Z,12.60
2019-05-23T05:41:55.751Z,12.60
2019-05-23T05:44:21.629Z,12.60
2019-05-23T05:46:48.133Z,12.70
2019-05-23T05:49:15.129Z,12.80
2019-05-23T05:51:40.914Z,12.80
2019-05-23T05:54:07.507Z,12.70
2019-05-23T05:56:34.889Z,12.90
2019-05-23T05:59:00.831Z,13.20
2019-05-23T06:01:34.043Z,13.20
2019-05-23T06:03:57.687Z,13.40
2019-05-23T06:06:29.124Z,13.30
2019-05-23T06:08:57.784Z,13.50
2019-05-23T06:11:24.156Z,13.50
2019-05-23T06:13:49.876Z,13.70
2019-05-23T06:16:16.469Z,13.70
2019-05-23T06:18:43.433Z,14.00
2019-05-23T06:21:11.438Z,14.10
2019-05-23T06:23:37.654Z,14.10
2019-05-23T06:26:03.561Z,14.30
2019-05-23T06:28:29.524Z,14.40
2019-05-23T06:30:55.763Z,14.50
2019-05-23T06:33:23.673Z,14.70
2019-05-23T06:35:49.378Z,14.90
2019-05-23T06:38:15.161Z,15.20
2019-05-23T06:40:41.675Z,15.30
2019-05-23T06:43:08.842Z,15.30
2019-05-23T06:45:34.414Z,15.30
2019-05-23T06:48:00.264Z,15.30
2019-05-23T06:50:26.079Z,15.50
2019-05-23T06:52:51.562Z,15.60
2019-05-23T06:55:17.192Z,15.80
2019-05-23T06:57:42.768Z,15.90
2019-05-23T07:00:10.563Z,16.00
2019-05-23T07:02:36.238Z,16.30
2019-05-23T07:05:01.711Z,16.50
2019-05-23T07:07:27.158Z,16.70
2019-05-23T07:09:52.644Z,16.70
2019-05-23T07:12:18.119Z,16.70
2019-05-23T07:14:43.673Z,16.70
2019-05-23T07:17:09.990Z,16.80
2019-05-23T07:19:35.850Z,17.00
2019-05-23T07:22:01.305Z,16.90
2019-05-23T07:24:27.742Z,16.90
2019-05-23T07:26:53.200Z,17.00
2019-05-23T07:29:18.815Z,17.10
2019-05-23T07:31:44.437Z,17.20
2019-05-23T07:34:09.913Z,17.20
2019-05-23T07:36:36.856Z,17.20
2019-05-23T07:39:02.446Z,17.30
2019-05-23T07:41:27.800Z,17.40
2019-05-23T07:43:53.610Z,17.40
2019-05-23T07:46:19.407Z,17.60
2019-05-23T07:48:44.863Z,17.70
2019-05-23T07:51:10.342Z,17.60
2019-05-23T07:53:52.628Z,17.70
2019-05-23T07:56:20.177Z,17.70
2019-05-23T07:58:45.800Z,17.90
2019-05-23T08:01:13.769Z,17.90
2019-05-23T08:03:40.454Z,18.00
2019-05-23T08:06:06.635Z,18.00
2019-05-23T08:08:32.102Z,18.00
2019-05-23T08:10:57.575Z,18.20
2019-05-23T08:13:23.059Z,18.30
2019-05-23T08:15:49.115Z,18.30
2019-05-23T08:18:14.847Z,18.40
2019-05-23T08:20:40.807Z,18.30
2019-05-23T08:23:06.324Z,18.30
2019-05-23T08:25:31.787Z,18.50
2019-05-23T08:27:57.612Z,18.60
2019-05-23T08:30:23.762Z,18.70
2019-05-23T08:32:49.674Z,18.70
2019-05-23T08:35:17.838Z,18.70
2019-05-23T08:37:42.922Z,18.90
2019-05-23T08:40:11.235Z,18.90
2019-05-23T08:42:37.672Z,19.00
2019-05-23T08:45:03.890Z,19.00
2019-05-23T08:47:30.251Z,19.10
2019-05-23T08:49:55.717Z,19.10
2019-05-23T08:52:21.200Z,19.30
2019-05-23T08:54:47.342Z,19.40
2019-05-23T08:57:13.191Z,19.40
2019-05-23T08:59:38.746Z,19.40
2019-05-23T09:02:05.860Z,19.30
2019-05-23T09:04:31.515Z,19.40
2019-05-23T09:06:56.981Z,19.60
2019-05-23T09:09:29.663Z,19.60
2019-05-23T09:11:50.513Z,19.70
2019-05-23T09:14:15.971Z,19.70
2019-05-23T09:16:41.943Z,19.70
2019-05-23T09:19:07.503Z,19.80
2019-05-23T09:21:32.988Z,19.90
2019-05-23T09:23:58.441Z,20.00
2019-05-23T09:26:24.296Z,20.00
2019-05-23T09:28:51.122Z,20.10
2019-05-23T09:31:17.461Z,19.90
2019-05-23T09:33:42.927Z,19.70
2019-05-23T09:36:08.855Z,19.60
2019-05-23T09:38:34.252Z,19.70
2019-05-23T09:41:00.290Z,19.90
2019-05-23T09:43:25.824Z,20.00
2019-05-23T09:45:51.287Z,20.10
2019-05-23T09:48:16.720Z,20.00
2019-05-23T09:50:42.439Z,20.10
2019-05-23T09:53:07.898Z,20.30
2019-05-23T09:55:33.873Z,20.30
2019-05-23T09:57:59.576Z,20.30
2019-05-23T10:00:27.550Z,20.20
2019-05-23T10:02:53.506Z,20.20
2019-05-23T10:05:18.971Z,20.20
2019-05-23T10:07:44.588Z,20.20
2019-05-23T10:10:10.748Z,20.30
2019-05-23T10:12:36.561Z,20.40
2019-05-23T10:15:02.217Z,20.40
2019-05-23T10:17:28.051Z,20.50
2019-05-23T10:19:53.501Z,20.60
2019-05-23T10:22:19.121Z,20.60
2019-05-23T10:24:44.826Z,20.70
2019-05-23T10:27:12.038Z,20.80
2019-05-23T10:29:37.451Z,20.80
2019-05-23T10:32:03.013Z,20.90
2019-05-23T10:34:28.537Z,20.80
2019-05-23T10:36:54.093Z,20.90
2019-05-23T10:39:21.478Z,21.10
2019-05-23T10:41:47.604Z,21.10
2019-05-23T10:44:13.165Z,21.10
2019-05-23T10:46:38.720Z,21.00
2019-05-23T10:49:04.351Z,21.20
2019-05-23T10:51:30.006Z,21.00
2019-05-23T10:53:55.888Z,20.70
2019-05-23T10:56:21.708Z,20.80
2019-05-23T10:58:47.589Z,20.80
2019-05-23T11:01:14.454Z,20.70
2019-05-23T11:03:39.910Z,20.60
2019-05-23T11:06:15.929Z,20.60
2019-05-23T11:08:34.826Z,20.50
2019-05-23T11:11:00.269Z,20.70
2019-05-23T11:13:26.206Z,20.90
2019-05-23T11:15:51.860Z,21.00
2019-05-23T11:18:17.746Z,21.20
2019-05-23T11:20:43.592Z,21.40
2019-05-23T11:23:10.548Z,21.40
2019-05-23T11:25:36.947Z,21.20
2019-05-23T11:28:02.890Z,21.20
2019-05-23T11:30:44.970Z,21.00
2019-05-23T11:33:12.477Z,20.90
2019-05-23T11:35:38.016Z,21.00
2019-05-23T11:38:03.557Z,21.20
2019-05-23T11:40:29.020Z,21.30
2019-05-23T11:42:54.473Z,21.40
2019-05-23T11:45:20.511Z,21.50
2019-05-23T11:47:46.301Z,21.50
2019-05-23T11:50:11.994Z,21.60
2019-05-23T11:52:37.597Z,21.70
2019-05-23T11:55:04.121Z,21.70
2019-05-23T11:57:30.234Z,21.40
2019-05-23T11:59:55.726Z,21.30
2019-05-23T12:02:27.183Z,21.30
2019-05-23T12:04:53.740Z,21.30
2019-05-23T12:07:24.249Z,21.20
2019-05-23T12:09:49.948Z,21.10
2019-05-23T12:12:15.371Z,21.20
2019-05-23T12:14:42.357Z,21.40
2019-05-23T12:17:08.216Z,21.40
2019-05-23T12:19:34.605Z,21.40
2019-05-23T12:22:00.090Z,21.60
2019-05-23T12:24:25.745Z,21.70
2019-05-23T12:26:51.219Z,21.90
2019-05-23T12:29:16.756Z,21.90
2019-05-23T12:31:42.244Z,21.90
2019-05-23T12:34:09.433Z,22.00
2019-05-23T12:36:35.375Z,21.90
2019-05-23T12:39:00.839Z,21.90
2019-05-23T12:41:26.595Z,21.90
2019-05-23T12:43:52.117Z,21.90
2019-05-23T12:46:17.700Z,22.00
2019-05-23T12:49:03.659Z,21.90
2019-05-23T12:51:31.148Z,21.90
2019-05-23T12:53:56.644Z,22.00
2019-05-23T12:56:22.235Z,22.00
2019-05-23T12:58:47.725Z,22.10
2019-05-23T13:01:15.548Z,21.90
2019-05-23T13:03:47.144Z,21.90
2019-05-23T13:06:12.834Z,22.00
2019-05-23T13:08:39.437Z,22.00
2019-05-23T13:11:06.077Z,22.20
2019-05-23T13:13:32.009Z,22.10
2019-05-23T13:15:57.575Z,22.20
2019-05-23T13:18:31.621Z,22.30
2019-05-23T13:20:59.507Z,22.20
2019-05-23T13:23:25.415Z,22.20
2019-05-23T13:25:51.062Z,22.30
2019-05-23T13:28:17.290Z,22.40
2019-05-23T13:30:54.027Z,22.30
2019-05-23T13:33:19.778Z,22.40
2019-05-23T13:35:47.876Z,22.50
2019-05-23T13:38:13.264Z,22.60
2019-05-23T13:40:39.022Z,22.70
2019-05-23T13:43:08.284Z,22.90
2019-05-23T13:45:32.699Z,22.90
2019-05-23T13:47:58.423Z,22.90
2019-05-23T13:50:25.779Z,22.80
2019-05-23T13:52:53.611Z,22.70
2019-05-23T13:55:19.752Z,22.70
2019-05-23T13:57:52.570Z,22.60
2019-05-23T14:00:20.323Z,22.40
2019-05-23T14:02:45.910Z,22.30
2019-05-23T14:05:11.785Z,22.60
2019-05-23T14:07:37.748Z,22.50
2019-05-23T14:10:03.532Z,22.50
2019-05-23T14:12:29.990Z,22.60
2019-05-23T14:14:55.943Z,22.70
2019-05-23T14:17:26.658Z,22.60
2019-05-23T14:19:53.303Z,22.50
2019-05-23T14:22:19.150Z,22.40
2019-05-23T14:27:36.808Z,22.60
2019-05-23T14:30:11.047Z,22.70
2019-05-23T14:32:45.574Z,22.80
2019-05-23T14:35:11.579Z,22.90
2019-05-23T14:37:42.919Z,22.50
2019-05-23T14:40:11.328Z,22.40
2019-05-23T14:42:46.410Z,22.60
2019-05-23T14:45:31.010Z,22.70
2019-05-23T14:48:03.021Z,22.80
2019-05-23T14:50:47.672Z,23.00
2019-05-23T14:53:15.029Z,23.00
2019-05-23T14:55:41.254Z,22.80
2019-05-23T14:58:16.893Z,22.50
2019-05-23T15:00:50.776Z,22.30
2019-05-23T15:03:16.582Z,22.20
2019-05-23T15:05:42.185Z,22.20
2019-05-23T15:08:07.839Z,22.20
2019-05-23T15:10:33.662Z,22.20
2019-05-23T15:12:59.464Z,22.40
2019-05-23T15:15:26.031Z,22.40
2019-05-23T15:17:51.665Z,22.40
2019-05-23T15:20:17.687Z,22.60
2019-05-23T15:22:43.736Z,22.60
2019-05-23T15:25:11.870Z,22.60
2019-05-23T15:27:37.414Z,22.60
2019-05-23T15:30:07.956Z,22.60
2019-05-23T15:32:45.019Z,22.60
2019-05-23T15:35:18.315Z,22.50
2019-05-23T15:37:53.093Z,22.50
2019-05-23T15:40:22.930Z,22.60
2019-05-23T15:42:48.496Z,22.50
2019-05-23T15:45:14.419Z,22.60
2019-05-23T15:47:39.923Z,22.80
2019-05-23T15:50:11.466Z,22.70
2019-05-23T15:52:59.756Z,22.60
2019-05-23T15:55:47.156Z,22.60
2019-05-23T15:58:27.179Z,22.40
2019-05-23T16:01:01.316Z,22.40
2019-05-23T16:03:44.703Z,22.30
2019-05-23T16:06:12.964Z,22.40
2019-05-23T16:08:38.692Z,22.40
2019-05-23T16:11:04.954Z,22.30
2019-05-23T16:13:30.491Z,22.40
2019-05-23T16:15:55.950Z,22.50
2019-05-23T16:18:21.974Z,22.60
2019-05-23T16:20:47.350Z,22.70
2019-05-23T16:23:12.926Z,22.60
2019-05-23T16:25:38.454Z,22.60
2019-05-23T16:28:03.950Z,22.60
2019-05-23T16:30:29.554Z,22.70
2019-05-23T16:32:55.005Z,22.50
2019-05-23T16:35:20.733Z,22.40
2019-05-23T16:37:46.698Z,22.30
2019-05-23T16:40:12.670Z,22.30
2019-05-23T16:42:38.141Z,22.30
2019-05-23T16:45:03.720Z,22.30
2019-05-23T16:47:30.166Z,22.30
2019-05-23T16:49:55.619Z,22.30
2019-05-23T16:52:21.065Z,22.40
2019-05-23T16:54:48.331Z,22.30
2019-05-23T16:57:33.299Z,22.30
2019-05-23T17:00:35.307Z,22.20
2019-05-23T17:03:17.154Z,22.30
2019-05-23T17:06:07.904Z,22.10
2019-05-23T17:08:51.200Z,22.10
2019-05-23T17:11:41.420Z,22.10
2019-05-23T17:14:22.101Z,22.10
2019-05-23T17:17:48.918Z,22.10
2019-05-23T17:22:02.934Z,22.10
2019-05-23T17:23:00.549Z,22.10
2019-05-23T17:25:50.559Z,22.00
2019-05-23T17:28:35.868Z,21.90
2019-05-23T17:31:04.132Z,22.00
2019-05-23T17:33:29.861Z,21.90
2019-05-23T17:35:56.244Z,21.80
2019-05-23T17:38:22.154Z,21.70
2019-05-23T17:40:47.647Z,21.70
2019-05-23T17:43:13.209Z,21.70
2019-05-23T17:45:39.000Z,21.70
2019-05-23T17:48:06.014Z,21.70
2019-05-23T17:50:44.257Z,21.70
2019-05-23T17:53:09.792Z,21.70
2019-05-23T17:55:35.634Z,21.60
2019-05-23T17:58:01.101Z,21.60
2019-05-23T18:00:39.194Z,21.60
2019-05-23T18:03:05.102Z,21.60
2019-05-23T18:05:31.449Z,21.60
2019-05-23T18:07:57.307Z,21.60
2019-05-23T18:10:22.743Z,21.40
2019-05-23T18:12:48.575Z,21.40
2019-05-23T18:15:15.558Z,21.30
2019-05-23T18:17:41.288Z,21.30
2019-05-23T18:20:08.268Z,21.30
2019-05-23T18:22:35.715Z,21.30
2019-05-23T18:25:01.852Z,21.30
2019-05-23T18:27:27.860Z,21.30
2019-05-23T18:29:54.631Z,21.30
2019-05-23T18:32:23.064Z,21.20
2019-05-23T18:34:49.395Z,21.10
2019-05-23T18:37:15.960Z,21.20
2019-05-23T18:39:43.082Z,21.10
2019-05-23T18:42:08.609Z,21.10
2019-05-23T18:44:37.440Z,21.00
2019-05-23T18:47:04.573Z,20.90
2019-05-23T18:49:30.032Z,20.80
2019-05-23T18:51:55.694Z,20.70
2019-05-23T18:54:21.269Z,20.60
2019-05-23T18:56:47.097Z,20.40
2019-05-23T18:59:13.525Z,20.50
2019-05-23T19:01:40.018Z,20.50
2019-05-23T19:04:05.728Z,20.50
2019-05-23T19:06:31.268Z,20.40
2019-05-23T19:08:56.944Z,20.30
2019-05-23T19:11:39.956Z,20.30
2019-05-23T19:14:05.703Z,20.20
2019-05-23T19:16:32.783Z,20.20
2019-05-23T19:18:58.572Z,20.20
2019-05-23T19:21:24.974Z,20.20
2019-05-23T19:23:50.990Z,20.10
2019-05-23T19:26:17.678Z,19.90
2019-05-23T19:28:44.673Z,20.00
2019-05-23T19:31:10.512Z,20.00
2019-05-23T19:33:36.241Z,20.00
2019-05-23T19:36:01.973Z,20.00
2019-05-23T19:38:27.622Z,20.00
2019-05-23T19:40:53.460Z,20.00
2019-05-23T19:43:19.679Z,19.90
2019-05-23T19:45:54.742Z,19.90
2019-05-23T19:48:21.402Z,19.90
2019-05-23T19:50:46.877Z,19.80
2019-05-23T19:53:12.456Z,19.60
2019-05-23T19:55:40.081Z,19.60
2019-05-23T19:58:06.261Z,19.50
2019-05-23T20:00:33.955Z,19.50
2019-05-23T20:03:03.520Z,19.50
2019-05-23T20:05:32.760Z,19.40
2019-05-23T20:07:58.677Z,19.20
2019-05-23T20:10:25.315Z,19.20
2019-05-23T20:12:54.116Z,19.10
2019-05-23T20:15:19.899Z,19.00
2019-05-23T20:17:45.554Z,18.90
2019-05-23T20:20:11.202Z,18.80
2019-05-23T20:22:36.725Z,18.90
2019-05-23T20:25:02.552Z,18.80
2019-05-23T20:27:28.163Z,18.70
2019-05-23T20:29:53.696Z,18.60
2019-05-23T20:32:31.168Z,18.60
2019-05-23T20:34:57.004Z,18.60
2019-05-23T20:37:22.810Z,18.50
2019-05-23T20:39:49.256Z,18.60
2019-05-23T20:42:14.909Z,18.40
2019-05-23T20:44:40.419Z,18.40
2019-05-23T20:47:06.368Z,18.40
2019-05-23T20:49:31.943Z,18.30
2019-05-23T20:51:57.632Z,18.20
2019-05-23T20:54:26.996Z,18.20
2019-05-23T20:56:54.060Z,18.10
2019-05-23T20:59:25.868Z,18.10
2019-05-23T21:01:51.695Z,17.90
2019-05-23T21:04:17.252Z,17.90
2019-05-23T21:06:42.720Z,17.90
2019-05-23T21:09:09.773Z,17.90
2019-05-23T21:11:35.247Z,17.90
2019-05-23T21:14:00.744Z,17.90
2019-05-23T21:16:26.267Z,17.80
2019-05-23T21:18:54.821Z,17.70
2019-05-23T21:21:20.353Z,17.70
2019-05-23T21:23:45.829Z,17.70
2019-05-23T21:26:11.613Z,17.60
2019-05-23T21:28:37.878Z,17.60
2019-05-23T21:31:06.150Z,17.50
2019-05-23T21:33:31.897Z,17.40
2019-05-23T21:35:57.880Z,17.50
2019-05-23T21:38:23.403Z,17.50
2019-05-23T21:40:49.655Z,17.40
2019-05-23T21:43:15.317Z,17.40
2019-05-23T21:45:43.204Z,17.40
2019-05-23T21:48:08.798Z,17.30
2019-05-23T21:50:34.889Z,17.30
2019-05-23T21:53:00.602Z,17.20
2019-05-23T21:55:42.248Z,17.20
2019-05-23T21:58:10.036Z,17.10
2019-05-23T22:01:33.442Z,17.20
2019-05-23T22:04:36.876Z,17.10
2019-05-23T22:07:04.564Z,17.00
2019-05-23T22:09:30.817Z,16.90
2019-05-23T22:11:56.671Z,16.90
2019-05-23T22:14:23.114Z,16.90
2019-05-23T22:16:48.659Z,16.80
2019-05-23T22:19:18.150Z,16.80
2019-05-23T22:21:44.135Z,16.80
2019-05-23T22:24:11.433Z,16.80
2019-05-23T22:26:40.081Z,16.80
2019-05-23T22:29:06.210Z,16.70
2019-05-23T22:31:32.070Z,16.60
2019-05-23T22:34:04.979Z,16.60
2019-05-23T22:36:30.965Z,16.50
2019-05-23T22:38:56.435Z,16.50
2019-05-23T22:41:22.360Z,16.60
2019-05-23T22:43:47.928Z,16.50
2019-05-23T22:46:16.030Z,16.40
2019-05-23T22:48:41.626Z,16.40
2019-05-23T22:51:07.107Z,16.40
2019-05-23T22:53:47.352Z,16.50
2019-05-23T22:56:15.025Z,16.40
2019-05-23T22:58:40.623Z,16.40
2019-05-23T23:01:06.187Z,16.30
2019-05-23T23:03:31.833Z,16.20
2019-05-23T23:05:59.595Z,16.10
2019-05-23T23:08:26.058Z,16.10
2019-05-23T23:10:51.893Z,16.10
2019-05-23T23:13:20.041Z,16.10
2019-05-23T23:15:46.143Z,16.10
2019-05-23T23:18:11.934Z,16.10
2019-05-23T23:20:37.689Z,16.00
2019-05-23T23:23:03.623Z,16.00
2019-05-23T23:25:29.621Z,15.90
2019-05-23T23:27:55.670Z,16.00
2019-05-23T23:30:25.135Z,15.80
2019-05-23T23:32:52.214Z,15.80
2019-05-23T23:35:19.283Z,15.70
2019-05-23T23:37:44.997Z,15.60
2019-05-23T23:40:11.700Z,15.60
2019-05-23T23:42:37.586Z,15.60
2019-05-23T23:45:20.917Z,15.50
2019-05-23T23:48:04.411Z,15.40
2019-05-23T23:50:47.827Z,15.40
2019-05-23T23:53:31.993Z,15.40
2019-05-23T23:56:16.719Z,15.50
2019-05-23T23:58:41.469Z,15.50
